createdAt,value
2023-11-15T00:00:07.827Z,10.32
2023-11-15T00:02:35.831Z,10.37
2023-11-15T00:05:04.217Z,10.60
2023-11-15T00:07:31.903Z,10.59
2023-11-15T00:09:58.552Z,10.54
2023-11-15T00:12:26.233Z,10.67
2023-11-15T00:14:53.646Z,10.65
2023-11-15T00:17:20.706Z,10.53
2023-11-15T00:19:47.435Z,10.54
2023-11-15T00:22:16.158Z,10.66
2023-11-15T00:24:44.071Z,10.55
2023-11-15T00:27:12.439Z,10.60
2023-11-15T00:29:39.731Z,10.49
2023-11-15T00:32:06.968Z,10.51
2023-11-15T00:34:33.747Z,10.38
2023-11-15T00:37:00.988Z,10.50
2023-11-15T00:39:29.464Z,10.60
2023-11-15T00:41:56.577Z,10.51
2023-11-15T00:44:23.318Z,10.27
2023-11-15T00:46:49.960Z,10.27
2023-11-15T00:49:16.652Z,10.44
2023-11-15T00:51:43.199Z,10.30
2023-11-15T00:54:09.853Z,10.50
2023-11-15T00:56:36.988Z,10.76
2023-11-15T00:59:04.177Z,10.73
2023-11-15T01:01:30.932Z,10.54
2023-11-15T01:03:57.932Z,10.45
2023-11-15T01:06:25.630Z,10.29
2023-11-15T01:08:53.662Z,10.37
2023-11-15T01:11:21.441Z,10.31
2023-11-15T01:13:48.336Z,10.35
2023-11-15T01:16:15.365Z,10.72
2023-11-15T01:18:43.085Z,10.56
2023-11-15T01:21:11.245Z,10.37
2023-11-15T01:23:38.569Z,10.39
2023-11-15T01:26:06.770Z,10.56
2023-11-15T01:28:33.526Z,10.60
2023-11-15T01:31:00.088Z,10.44
2023-11-15T01:33:27.713Z,10.46
2023-11-15T01:35:54.522Z,10.36
2023-11-15T01:38:21.215Z,10.39
2023-11-15T01:40:49.494Z,10.56
2023-11-15T01:43:17.696Z,10.44
2023-11-15T01:45:47.880Z,10.42
2023-11-15T01:48:17.996Z,10.22
2023-11-15T01:50:46.767Z,10.44
2023-11-15T01:53:14.924Z,10.45
2023-11-15T01:55:44.156Z,10.55
2023-11-15T01:58:11.205Z,10.44
2023-11-15T02:00:38.051Z,10.42
2023-11-15T02:03:05.013Z,10.65
2023-11-15T02:05:31.872Z,10.50
2023-11-15T02:07:58.748Z,10.24
2023-11-15T02:10:25.826Z,10.38
2023-11-15T02:12:52.618Z,10.62
2023-11-15T02:15:19.313Z,10.56
2023-11-15T02:17:49.761Z,10.60
2023-11-15T02:20:17.509Z,10.60
2023-11-15T02:22:50.164Z,10.55
2023-11-15T02:25:18.151Z,10.58
2023-11-15T02:27:45.230Z,10.36
2023-11-15T02:30:12.757Z,10.54
2023-11-15T02:32:42.288Z,10.49
2023-11-15T02:35:09.753Z,10.55
2023-11-15T02:37:36.875Z,10.43
2023-11-15T02:40:06.377Z,10.40
2023-11-15T02:42:34.243Z,10.25
2023-11-15T02:45:01.203Z,10.67
2023-11-15T02:47:28.489Z,10.69
2023-11-15T02:49:55.222Z,10.47
2023-11-15T02:52:22.385Z,10.40
2023-11-15T02:54:50.002Z,10.34
2023-11-15T02:57:16.936Z,10.41
2023-11-15T02:59:43.615Z,10.45
2023-11-15T03:02:10.397Z,10.25
2023-11-15T03:04:37.043Z,10.45
2023-11-15T03:07:03.767Z,10.36
2023-11-15T03:09:30.404Z,10.57
2023-11-15T03:11:57.349Z,10.40
2023-11-15T03:14:24.134Z,10.30
2023-11-15T03:16:50.793Z,10.28
2023-11-15T03:19:17.519Z,10.47
2023-11-15T03:21:44.162Z,10.39
2023-11-15T03:24:10.908Z,10.40
2023-11-15T03:26:37.884Z,10.40
2023-11-15T03:29:06.248Z,10.47
2023-11-15T03:31:32.965Z,10.32
2023-11-15T03:34:00.018Z,10.31
2023-11-15T03:36:26.844Z,10.36
2023-11-15T03:38:54.014Z,10.23
2023-11-15T03:41:20.706Z,10.30
2023-11-15T03:43:47.354Z,10.50
2023-11-15T03:46:14.025Z,10.22
2023-11-15T03:48:40.823Z,10.28
2023-11-15T03:51:08.269Z,10.38
2023-11-15T03:53:34.987Z,10.16
2023-11-15T03:56:01.641Z,10.07
2023-11-15T03:58:28.524Z,10.23
2023-11-15T04:00:58.024Z,9.90
2023-11-15T04:03:24.960Z,10.23
2023-11-15T04:05:51.812Z,10.10
2023-11-15T04:08:18.753Z,10.21
2023-11-15T04:10:45.431Z,10.26
2023-11-15T04:13:12.849Z,10.29
2023-11-15T04:15:39.583Z,10.07
2023-11-15T04:18:06.511Z,10.08
2023-11-15T04:20:33.454Z,10.02
2023-11-15T04:23:00.038Z,9.93
2023-11-15T04:25:27.002Z,10.22
2023-11-15T04:27:53.638Z,10.22
2023-11-15T04:30:20.266Z,10.27
2023-11-15T04:32:48.685Z,9.92
2023-11-15T04:35:15.629Z,10.25
2023-11-15T04:37:42.242Z,10.15
2023-11-15T04:40:10.502Z,10.20
2023-11-15T04:42:37.986Z,9.87
2023-11-15T04:45:05.787Z,9.79
2023-11-15T04:47:32.885Z,9.85
2023-11-15T04:49:59.566Z,9.80
2023-11-15T04:52:26.694Z,10.02
2023-11-15T04:54:55.651Z,10.11
2023-11-15T04:57:26.207Z,10.02
2023-11-15T04:59:56.839Z,9.91
2023-11-15T05:02:24.161Z,9.89
2023-11-15T05:04:53.203Z,10.01
2023-11-15T05:07:21.556Z,10.06
2023-11-15T05:09:48.224Z,10.26
2023-11-15T05:12:17.277Z,10.25
2023-11-15T05:14:44.648Z,10.36
2023-11-15T05:17:12.305Z,10.16
2023-11-15T05:19:39.473Z,10.08
2023-11-15T05:22:06.182Z,10.19
2023-11-15T05:24:32.812Z,10.17
2023-11-15T05:26:59.693Z,10.17
2023-11-15T05:29:26.870Z,10.43
2023-11-15T05:31:53.598Z,10.34
2023-11-15T05:34:20.539Z,10.30
2023-11-15T05:36:47.240Z,10.31
2023-11-15T05:39:14.096Z,10.21
2023-11-15T05:41:41.162Z,10.29
2023-11-15T05:44:07.894Z,10.00
2023-11-15T05:46:37.453Z,10.14
2023-11-15T05:49:05.115Z,10.30
2023-11-15T05:51:31.861Z,10.36
2023-11-15T05:53:58.549Z,10.10
2023-11-15T05:56:25.251Z,10.17
2023-11-15T05:58:51.968Z,10.26
2023-11-15T06:01:18.831Z,10.19
2023-11-15T06:03:47.442Z,10.21
2023-11-15T06:06:14.184Z,10.37
2023-11-15T06:08:41.026Z,10.03
2023-11-15T06:11:07.645Z,10.18
2023-11-15T06:13:39.912Z,9.97
2023-11-15T06:16:07.309Z,10.00
2023-11-15T06:18:34.132Z,9.84
2023-11-15T06:21:01.203Z,9.90
2023-11-15T06:23:27.931Z,9.85
2023-11-15T06:25:54.570Z,10.07
2023-11-15T06:28:21.635Z,10.11
2023-11-15T06:30:50.055Z,10.26
2023-11-15T06:33:17.238Z,10.18
2023-11-15T06:35:45.579Z,10.10
2023-11-15T06:38:12.353Z,10.20
2023-11-15T06:40:38.959Z,10.22
2023-11-15T06:43:05.645Z,10.34
2023-11-15T06:45:33.500Z,9.93
2023-11-15T06:48:01.872Z,9.80
2023-11-15T06:50:29.576Z,10.05
2023-11-15T06:52:56.928Z,10.08
2023-11-15T06:55:23.573Z,9.90
2023-11-15T06:57:50.228Z,9.87
2023-11-15T07:00:17.358Z,10.12
2023-11-15T07:02:44.100Z,9.98
2023-11-15T07:05:12.031Z,9.61
2023-11-15T07:07:39.107Z,9.65
2023-11-15T07:10:07.001Z,9.93
2023-11-15T07:12:37.267Z,10.05
2023-11-15T07:15:05.250Z,10.09
2023-11-15T07:17:33.259Z,9.95
2023-11-15T07:20:00.460Z,10.07
2023-11-15T07:22:27.085Z,10.10
2023-11-15T07:24:53.817Z,10.01
2023-11-15T07:27:20.739Z,9.93
2023-11-15T07:29:48.279Z,10.24
2023-11-15T07:32:14.955Z,10.32
2023-11-15T07:34:41.726Z,10.25
2023-11-15T07:37:09.291Z,10.39
2023-11-15T07:39:36.261Z,10.57
2023-11-15T07:42:03.158Z,10.99
2023-11-15T07:44:31.688Z,10.39
2023-11-15T07:47:00.386Z,10.71
2023-11-15T07:49:28.189Z,10.61
2023-11-15T07:51:55.003Z,10.44
2023-11-15T07:54:22.377Z,10.62
2023-11-15T07:56:49.105Z,10.20
2023-11-15T07:59:16.212Z,10.64
2023-11-15T08:01:47.116Z,10.62
2023-11-15T08:04:16.171Z,10.83
2023-11-15T08:06:43.721Z,10.70
2023-11-15T08:09:25.161Z,10.56
2023-11-15T08:11:57.401Z,11.00
2023-11-15T08:14:26.378Z,10.98
2023-11-15T08:16:53.870Z,11.51
2023-11-15T08:19:20.582Z,11.66
2023-11-15T08:21:48.851Z,11.42
2023-11-15T08:24:22.228Z,11.23
2023-11-15T08:26:55.886Z,11.26
2023-11-15T08:29:23.479Z,11.22
2023-11-15T08:31:50.811Z,11.37
2023-11-15T08:34:22.115Z,11.07
2023-11-15T08:36:50.239Z,11.23
2023-11-15T08:39:17.866Z,11.08
2023-11-15T08:41:47.255Z,11.25
2023-11-15T08:44:14.329Z,11.31
2023-11-15T08:46:45.820Z,11.18
2023-11-15T08:49:13.654Z,11.47
2023-11-15T08:51:41.984Z,11.51
2023-11-15T08:54:08.983Z,11.52
2023-11-15T08:56:36.835Z,11.45
2023-11-15T08:59:04.833Z,10.92
2023-11-15T09:01:31.888Z,10.87
2023-11-15T09:04:00.996Z,11.03
2023-11-15T09:06:28.227Z,11.13
2023-11-15T09:08:55.768Z,11.31
2023-11-15T09:11:22.410Z,11.23
2023-11-15T09:13:49.117Z,11.24
2023-11-15T09:16:16.001Z,11.58
2023-11-15T09:18:44.062Z,10.97
2023-11-15T09:21:13.415Z,11.10
2023-11-15T09:23:42.661Z,11.16
2023-11-15T09:26:17.749Z,11.17
2023-11-15T09:28:44.503Z,11.21
2023-11-15T09:31:13.479Z,11.19
2023-11-15T09:33:40.616Z,11.01
2023-11-15T09:36:09.398Z,11.10
2023-11-15T09:38:36.039Z,11.05
2023-11-15T09:41:13.045Z,10.95
2023-11-15T09:43:41.102Z,11.22
2023-11-15T09:46:11.901Z,11.11
2023-11-15T09:51:13.735Z,11.12
2023-11-15T09:53:40.442Z,11.46
2023-11-15T09:56:08.304Z,11.38
2023-11-15T09:58:36.437Z,11.50
2023-11-15T10:01:04.221Z,11.65
2023-11-15T10:03:31.504Z,11.66
2023-11-15T10:06:00.678Z,11.74
2023-11-15T10:08:29.301Z,11.85
2023-11-15T10:11:07.826Z,11.73
2023-11-15T10:13:36.951Z,11.74
2023-11-15T10:16:09.882Z,11.97
2023-11-15T10:18:36.780Z,12.20
2023-11-15T10:21:12.878Z,11.77
2023-11-15T10:23:40.717Z,12.11
2023-11-15T10:26:10.523Z,11.86
2023-11-15T10:28:41.049Z,12.26
2023-11-15T10:31:14.457Z,12.04
2023-11-15T10:33:50.665Z,11.79
2023-11-15T10:36:23.359Z,12.17
2023-11-15T10:38:55.978Z,12.03
2023-11-15T10:41:24.520Z,12.01
2023-11-15T10:43:52.645Z,11.99
2023-11-15T10:46:32.298Z,12.20
2023-11-15T10:49:00.529Z,11.65
2023-11-15T10:51:43.494Z,11.68
2023-11-15T10:54:12.635Z,12.09
2023-11-15T10:56:41.272Z,12.12
2023-11-15T10:59:11.320Z,11.81
2023-11-15T11:01:38.873Z,12.21
2023-11-15T11:04:12.729Z,12.35
2023-11-15T11:06:52.876Z,12.37
2023-11-15T11:09:27.412Z,12.74
2023-11-15T11:12:11.469Z,12.64
2023-11-15T11:14:39.491Z,12.21
2023-11-15T11:17:36.095Z,12.48
2023-11-15T11:20:10.653Z,12.57
2023-11-15T11:22:37.263Z,12.77
2023-11-15T11:25:08.267Z,12.75
2023-11-15T11:27:37.796Z,12.84
2023-11-15T11:30:08.861Z,12.78
2023-11-15T11:32:36.993Z,12.64
2023-11-15T11:35:06.181Z,12.61
2023-11-15T11:37:48.700Z,12.47
2023-11-15T11:40:16.693Z,12.81
2023-11-15T11:42:45.271Z,12.89
2023-11-15T11:45:15.433Z,13.21
2023-11-15T11:47:43.602Z,13.41
2023-11-15T11:50:10.800Z,12.95
2023-11-15T11:52:37.514Z,13.51
2023-11-15T11:55:06.249Z,14.31
2023-11-15T11:57:33.575Z,14.11
2023-11-15T12:00:14.889Z,13.53
2023-11-15T12:02:46.775Z,13.42
2023-11-15T12:05:15.730Z,13.11
2023-11-15T12:07:47.611Z,12.74
2023-11-15T12:10:15.956Z,12.16
2023-11-15T12:12:55.934Z,12.01
2023-11-15T12:15:28.832Z,10.98
2023-11-15T12:17:58.382Z,9.94
2023-11-15T12:20:42.960Z,9.84
2023-11-15T12:23:11.546Z,9.65
2023-11-15T12:25:48.258Z,10.06
2023-11-15T12:28:24.062Z,9.56
2023-11-15T12:30:53.171Z,9.75
2023-11-15T12:33:20.945Z,10.01
2023-11-15T12:35:52.639Z,10.13
2023-11-15T12:38:20.360Z,10.33
2023-11-15T12:40:47.511Z,10.34
2023-11-15T12:43:26.914Z,10.38
2023-11-15T12:45:57.591Z,10.38
2023-11-15T12:48:24.715Z,10.47
2023-11-15T12:51:00.736Z,10.70
2023-11-15T12:53:31.878Z,10.92
2023-11-15T12:55:59.874Z,10.83
2023-11-15T12:58:30.120Z,11.01
2023-11-15T13:01:13.613Z,10.92
2023-11-15T13:03:41.363Z,11.05
2023-11-15T13:06:11.229Z,11.06
2023-11-15T13:08:39.110Z,10.95
2023-11-15T13:11:06.985Z,11.17
2023-11-15T13:13:34.278Z,11.24
2023-11-15T13:16:00.912Z,11.59
2023-11-15T13:18:27.677Z,11.31
2023-11-15T13:20:54.816Z,11.45
2023-11-15T13:23:22.745Z,11.49
2023-11-15T13:25:49.355Z,11.47
2023-11-15T13:28:16.021Z,11.30
2023-11-15T13:30:43.944Z,11.13
2023-11-15T13:33:11.011Z,11.10
2023-11-15T13:35:38.204Z,11.19
2023-11-15T13:38:04.869Z,11.12
2023-11-15T13:40:31.526Z,11.19
2023-11-15T13:42:59.744Z,10.89
2023-11-15T13:45:28.491Z,11.02
2023-11-15T13:47:57.319Z,11.24
2023-11-15T13:50:24.106Z,11.28
2023-11-15T13:52:51.330Z,11.16
2023-11-15T13:55:18.214Z,11.21
2023-11-15T13:57:44.901Z,11.57
2023-11-15T14:00:15.319Z,11.31
2023-11-15T14:02:42.864Z,11.34
2023-11-15T14:05:16.100Z,11.42
2023-11-15T14:07:43.900Z,11.31
2023-11-15T14:10:12.036Z,11.38
2023-11-15T14:12:40.611Z,11.44
2023-11-15T14:15:10.147Z,11.57
2023-11-15T14:17:38.158Z,11.30
2023-11-15T14:20:08.367Z,11.15
2023-11-15T14:22:34.984Z,11.32
2023-11-15T14:25:04.930Z,11.16
2023-11-15T14:27:31.988Z,11.24
2023-11-15T14:29:58.607Z,11.30
2023-11-15T14:32:25.307Z,11.29
2023-11-15T14:34:51.815Z,11.17
2023-11-15T14:37:18.466Z,11.13
2023-11-15T14:39:45.504Z,11.04
2023-11-15T14:42:12.221Z,10.78
2023-11-15T14:44:39.853Z,10.84
2023-11-15T14:47:09.795Z,10.88
2023-11-15T14:49:36.916Z,10.57
2023-11-15T14:52:14.594Z,10.78
2023-11-15T14:54:45.468Z,10.65
2023-11-15T14:57:13.892Z,10.96
2023-11-15T14:59:43.960Z,10.74
2023-11-15T15:02:11.848Z,10.73
2023-11-15T15:04:43.473Z,10.88
2023-11-15T15:07:12.005Z,10.92
2023-11-15T15:09:41.269Z,10.78
2023-11-15T15:12:09.601Z,10.83
2023-11-15T15:14:37.127Z,10.80
2023-11-15T15:17:09.275Z,10.84
2023-11-15T15:19:39.262Z,10.85
2023-11-15T15:22:06.637Z,10.74
2023-11-15T15:24:34.676Z,10.78
2023-11-15T15:27:03.394Z,11.14
2023-11-15T15:29:31.465Z,10.83
2023-11-15T15:31:58.844Z,10.82
2023-11-15T15:34:27.460Z,10.88
2023-11-15T15:36:55.110Z,10.63
2023-11-15T15:39:24.034Z,10.52
2023-11-15T15:41:51.280Z,10.40
2023-11-15T15:44:18.607Z,10.63
2023-11-15T15:46:46.561Z,10.70
2023-11-15T15:49:13.877Z,10.49
2023-11-15T15:51:41.580Z,10.32
2023-11-15T15:54:09.073Z,10.19
2023-11-15T15:56:36.723Z,10.01
2023-11-15T15:59:04.873Z,10.23
2023-11-15T16:01:32.250Z,10.59
2023-11-15T16:04:01.092Z,10.17
2023-11-15T16:06:28.552Z,10.19
2023-11-15T16:08:55.983Z,10.11
2023-11-15T16:11:23.537Z,10.11
2023-11-15T16:13:50.757Z,10.44
2023-11-15T16:16:18.088Z,10.59
2023-11-15T16:18:45.514Z,10.38
2023-11-15T16:21:12.706Z,10.36
2023-11-15T16:23:39.512Z,10.41
2023-11-15T16:26:07.660Z,10.34
2023-11-15T16:28:38.563Z,10.42
2023-11-15T16:31:06.469Z,10.17
2023-11-15T16:33:33.442Z,10.32
2023-11-15T16:36:00.158Z,10.11
2023-11-15T16:38:27.389Z,10.57
2023-11-15T16:40:56.129Z,10.53
2023-11-15T16:43:26.551Z,10.41
2023-11-15T16:45:53.535Z,10.76
2023-11-15T16:48:20.533Z,10.59
2023-11-15T16:50:47.731Z,10.42
2023-11-15T16:53:14.934Z,10.38
2023-11-15T16:55:44.450Z,10.33
2023-11-15T16:58:12.350Z,10.50
2023-11-15T17:00:40.959Z,10.54
2023-11-15T17:03:10.282Z,10.30
2023-11-15T17:05:39.258Z,10.17
2023-11-15T17:08:08.868Z,10.51
2023-11-15T17:10:38.307Z,10.44
2023-11-15T17:13:06.466Z,10.72
2023-11-15T17:15:33.354Z,10.54
2023-11-15T17:17:59.995Z,10.59
2023-11-15T17:20:26.802Z,10.46
2023-11-15T17:22:54.092Z,10.29
2023-11-15T17:25:21.133Z,10.28
2023-11-15T17:27:47.915Z,10.55
2023-11-15T17:30:14.675Z,10.51
2023-11-15T17:32:41.335Z,10.26
2023-11-15T17:35:08.300Z,10.37
2023-11-15T17:37:34.920Z,10.39
2023-11-15T17:40:01.998Z,10.47
2023-11-15T17:42:29.760Z,10.28
2023-11-15T17:44:57.704Z,10.23
2023-11-15T17:47:25.598Z,10.27
2023-11-15T17:49:52.902Z,10.23
2023-11-15T17:52:19.648Z,10.32
2023-11-15T17:54:46.421Z,10.25
2023-11-15T17:57:16.521Z,10.14
2023-11-15T17:59:43.464Z,10.28
2023-11-15T18:02:10.853Z,10.06
2023-11-15T18:04:38.395Z,9.97
2023-11-15T18:07:06.345Z,9.77
2023-11-15T18:09:34.699Z,9.75
2023-11-15T18:12:02.168Z,9.74
2023-11-15T18:14:28.856Z,9.71
2023-11-15T18:16:56.665Z,9.62
2023-11-15T18:19:23.480Z,9.60
2023-11-15T18:21:51.802Z,9.63
2023-11-15T18:24:18.962Z,9.45
2023-11-15T18:26:46.781Z,9.68
2023-11-15T18:29:14.241Z,9.77
2023-11-15T18:31:41.382Z,9.88
2023-11-15T18:34:08.881Z,9.97
2023-11-15T18:36:35.689Z,9.85
2023-11-15T18:39:02.492Z,9.84
2023-11-15T18:41:29.209Z,9.86
2023-11-15T18:43:58.058Z,10.10
2023-11-15T18:46:25.637Z,9.88
2023-11-15T18:48:52.786Z,10.12
2023-11-15T18:51:23.974Z,10.10
2023-11-15T18:53:51.148Z,10.09
2023-11-15T18:56:17.944Z,9.84
2023-11-15T18:58:46.765Z,9.75
2023-11-15T19:01:13.690Z,10.09
2023-11-15T19:03:41.411Z,10.16
2023-11-15T19:06:08.706Z,10.03
2023-11-15T19:08:36.014Z,10.00
2023-11-15T19:11:03.571Z,9.56
2023-11-15T19:13:30.434Z,9.41
2023-11-15T19:15:59.260Z,9.28
2023-11-15T19:18:28.187Z,9.37
2023-11-15T19:20:54.961Z,9.41
2023-11-15T19:23:22.109Z,9.30
2023-11-15T19:25:48.786Z,9.25
2023-11-15T19:28:17.074Z,9.17
2023-11-15T19:30:48.126Z,8.98
2023-11-15T19:33:14.807Z,9.37
2023-11-15T19:35:41.882Z,9.25
2023-11-15T19:38:08.944Z,9.36
2023-11-15T19:40:36.364Z,9.42
2023-11-15T19:43:03.569Z,9.20
2023-11-15T19:45:30.322Z,9.38
2023-11-15T19:47:57.110Z,9.40
2023-11-15T19:50:23.782Z,9.26
2023-11-15T19:52:50.445Z,9.14
2023-11-15T19:55:17.119Z,9.42
2023-11-15T19:57:43.975Z,9.28
2023-11-15T20:00:12.146Z,9.40
2023-11-15T20:02:46.200Z,9.56
2023-11-15T20:05:14.422Z,9.21
2023-11-15T20:07:41.339Z,9.27
2023-11-15T20:10:10.339Z,8.92
2023-11-15T20:12:41.201Z,8.89
2023-11-15T20:15:11.296Z,8.92
2023-11-15T20:17:38.378Z,8.88
2023-11-15T20:20:06.576Z,8.83
2023-11-15T20:22:42.099Z,8.84
2023-11-15T20:25:15.419Z,8.78
2023-11-15T20:27:42.400Z,8.57
2023-11-15T20:30:10.260Z,8.88
2023-11-15T20:32:37.001Z,8.50
2023-11-15T20:35:04.794Z,8.92
2023-11-15T20:37:32.220Z,8.78
2023-11-15T20:39:59.147Z,8.55
2023-11-15T20:42:27.353Z,8.62
2023-11-15T20:44:55.624Z,8.64
2023-11-15T20:47:23.397Z,8.71
2023-11-15T20:49:52.445Z,8.66
2023-11-15T20:52:20.018Z,8.66
2023-11-15T20:54:46.749Z,8.76
2023-11-15T20:57:13.691Z,8.55
2023-11-15T20:59:40.425Z,8.73
2023-11-15T21:02:07.505Z,8.64
2023-11-15T21:04:34.994Z,8.60
2023-11-15T21:07:01.693Z,8.50
2023-11-15T21:09:28.329Z,8.74
2023-11-15T21:11:56.167Z,8.61
2023-11-15T21:14:23.140Z,8.78
2023-11-15T21:16:49.909Z,8.68
2023-11-15T21:19:17.983Z,8.63
2023-11-15T21:21:47.816Z,8.84
2023-11-15T21:24:14.581Z,8.77
2023-11-15T21:26:41.832Z,8.67
2023-11-15T21:29:12.071Z,8.34
2023-11-15T21:31:40.572Z,8.48
2023-11-15T21:34:08.683Z,8.51
2023-11-15T21:36:38.926Z,8.73
2023-11-15T21:39:09.458Z,8.61
2023-11-15T21:41:36.656Z,8.49
2023-11-15T21:44:03.864Z,8.56
2023-11-15T21:46:31.157Z,8.62
2023-11-15T21:48:58.597Z,8.61
2023-11-15T21:51:27.313Z,8.45
2023-11-15T21:53:55.188Z,8.50
2023-11-15T21:56:22.431Z,8.52
2023-11-15T21:58:50.391Z,8.40
2023-11-15T22:01:18.159Z,8.41
2023-11-15T22:03:45.082Z,8.20
2023-11-15T22:06:12.793Z,8.41
2023-11-15T22:08:40.167Z,8.36
2023-11-15T22:11:07.907Z,8.20
2023-11-15T22:13:34.997Z,8.45
2023-11-15T22:16:01.866Z,8.32
2023-11-15T22:18:30.258Z,8.25
2023-11-15T22:20:57.803Z,8.21
2023-11-15T22:23:25.398Z,8.19
2023-11-15T22:25:52.061Z,8.13
2023-11-15T22:28:18.810Z,8.16
2023-11-15T22:30:46.112Z,8.09
2023-11-15T22:33:12.901Z,8.33
2023-11-15T22:35:40.848Z,7.97
2023-11-15T22:38:08.250Z,8.30
2023-11-15T22:40:34.871Z,8.17
2023-11-15T22:43:04.456Z,8.23
2023-11-15T22:45:31.857Z,7.92
2023-11-15T22:47:59.760Z,8.12
2023-11-15T22:50:26.863Z,8.15
2023-11-15T22:52:53.559Z,7.97
2023-11-15T22:55:20.237Z,7.99
2023-11-15T22:57:48.191Z,7.90
2023-11-15T23:00:20.826Z,7.88
2023-11-15T23:02:50.269Z,8.05
2023-11-15T23:05:17.694Z,7.90
2023-11-15T23:07:44.377Z,7.98
2023-11-15T23:10:11.003Z,7.96
2023-11-15T23:12:39.510Z,8.03
2023-11-15T23:15:06.495Z,7.93
2023-11-15T23:17:34.661Z,7.97
2023-11-15T23:20:01.321Z,7.71
2023-11-15T23:22:27.953Z,7.96
2023-11-15T23:24:54.561Z,7.75
2023-11-15T23:27:21.478Z,8.01
2023-11-15T23:29:48.589Z,7.91
2023-11-15T23:32:15.688Z,7.93
2023-11-15T23:34:43.218Z,7.83
2023-11-15T23:37:09.850Z,7.92
2023-11-15T23:39:36.561Z,7.90
2023-11-15T23:42:05.431Z,7.77
2023-11-15T23:44:36.646Z,7.79
2023-11-15T23:47:04.065Z,7.86
2023-11-15T23:49:31.838Z,7.44
2023-11-15T23:51:58.538Z,7.74
2023-11-15T23:54:25.283Z,7.60
2023-11-15T23:56:51.882Z,7.69
2023-11-15T23:59:19.892Z,7.61
